Willis, MI (48191)

4:01 AM EST on February 10, 2016 (GMT -0500)
Sumpter Township | | Change Station
CLOSE
Current Station
Personal Weather Station
Location: Belleville, MI
Elevation: 666 ft
Nearby Weather Stations

Elev 666 ft 42.13 °N, 83.54 °W | Updated 3 minutes ago

Overcast
Overcast
23.0 °F
Feels Like 18 °F
N
3.7
Wind Variable Wind from West

Today
High -- | Low -- °F
--% Chance of Precip.
Yesterday
High -- | Low -- °F
Precip. -- in
Pressure 29.74 in
Visibility 10.0 miles
Clouds Overcast 2500 ft
Windchill 18 °F
Dew Point 18 °F
Humidity 82%
Rainfall 0.00 in
Snow Depth Not available.
7:37 AM 5:59 PM
Waxing Crescent, 4% visible
METAR KYIP 100853Z AUTO 30011G18KT 10SM OVC025 M03/M09 A2973 RMK AO2 SLP071 60000 T10331089 53001 TSNO
Pressure 29.74 in
Visibility 10.0 miles
Clouds Overcast 2500 ft
Windchill 18 °F
Dew Point 18 °F
Humidity 82%
Rainfall 0.00 in
Snow Depth Not available.
7:37 AM 5:59 PM
Waxing Crescent, 4% visible
METAR KYIP 100853Z AUTO 30011G18KT 10SM OVC025 M03/M09 A2973 RMK AO2 SLP071 60000 T10331089 53001 TSNO

10-Day Weather Forecast

Almanac

Astronomy

Feb. 10, 2016 Rise Set
Actual Time
Civil Twilight
Nautical Twilight
Astronomical Twilight
Moon
Length of Visible Light
Length of Day
Tomorrow will be .
, % of the Moon is Illuminated

Today's Extremes

State Highs State Lows

Community

WunderPhotos

Upload Photos

1,891,826 photos uploaded!

WunderBlog® & News

Nearby

Air Quality

  Air Quality AQ Index Pollutant
Not available.

Snow Depth

Station Depth Elevation

Earthquake Activity

City Distance Mag. Time & Date
Minimum magnitude displayed is 2.5.

Coastal Water Temperatures

Place Temperature

Stations

Nearby Weather Stations

Station Location Temp. Windchill Dew Point Humidity Wind Precip. Elev Updated Type
                   

Watches & Warnings

There are currently no watches in effect.